Terminal Aerodrome Forecast
Issued by NWS

Home | Current Version | Previous Version | Text Only | Print | Product List | Glossary On
Versions: 1 2 3 4 5 6 7 8 9 10 11 12 13 14 15 16 17
000
FTUS41 KBGM 201728
TAFITH
TAF
KITH 201728Z 2018/2118 28005KT P6SM BKN200
      TEMPO 2021/2023 5SM -TSRA BKN035CB
     FM210500 25004KT 5SM BR BKN040
     FM211400 29011KT P6SM SCT250=

USA.gov is the U.S. government's official web portal to all federal, state and local government web resources and services.